sensor_id;sensor_type;location;lat;lon;timestamp;P1;durP1;ratioP1;P2;durP2;ratioP2
23466;SDS011;59740;47.696;11.746;2023-11-21T00:00:08;5.55;;;1.80;;
23466;SDS011;59740;47.696;11.746;2023-11-21T00:02:40;5.47;;;1.80;;
23466;SDS011;59740;47.696;11.746;2023-11-21T00:05:09;6.35;;;2.30;;
23466;SDS011;59740;47.696;11.746;2023-11-21T00:07:39;5.93;;;2.35;;
23466;SDS011;59740;47.696;11.746;2023-11-21T00:10:09;4.95;;;1.88;;
23466;SDS011;59740;47.696;11.746;2023-11-21T00:12:41;5.53;;;1.75;;
23466;SDS011;59740;47.696;11.746;2023-11-21T00:15:11;5.22;;;1.55;;
23466;SDS011;59740;47.696;11.746;2023-11-21T00:17:40;5.65;;;1.70;;
23466;SDS011;59740;47.696;11.746;2023-11-21T00:20:09;4.30;;;1.70;;
23466;SDS011;59740;47.696;11.746;2023-11-21T00:22:40;7.53;;;1.88;;
23466;SDS011;59740;47.696;11.746;2023-11-21T00:25:10;6.97;;;1.92;;
23466;SDS011;59740;47.696;11.746;2023-11-21T00:27:39;4.95;;;1.90;;
23466;SDS011;59740;47.696;11.746;2023-11-21T00:30:08;5.50;;;1.75;;
23466;SDS011;59740;47.696;11.746;2023-11-21T00:32:39;5.57;;;1.90;;
23466;SDS011;59740;47.696;11.746;2023-11-21T00:35:08;5.28;;;1.73;;
23466;SDS011;59740;47.696;11.746;2023-11-21T00:37:36;8.18;;;1.98;;
23466;SDS011;59740;47.696;11.746;2023-11-21T00:40:06;4.03;;;1.38;;
23466;SDS011;59740;47.696;11.746;2023-11-21T00:42:36;5.20;;;2.05;;
23466;SDS011;59740;47.696;11.746;2023-11-21T00:45:05;8.00;;;1.95;;
23466;SDS011;59740;47.696;11.746;2023-11-21T00:47:35;6.30;;;1.70;;
23466;SDS011;59740;47.696;11.746;2023-11-21T00:50:06;8.00;;;1.73;;
23466;SDS011;59740;47.696;11.746;2023-11-21T00:52:35;5.60;;;1.75;;
23466;SDS011;59740;47.696;11.746;2023-11-21T00:55:04;7.88;;;1.83;;
23466;SDS011;59740;47.696;11.746;2023-11-21T00:57:34;7.70;;;2.03;;
23466;SDS011;59740;47.696;11.746;2023-11-21T01:00:04;6.00;;;1.77;;
23466;SDS011;59740;47.696;11.746;2023-11-21T01:02:37;7.05;;;2.05;;
23466;SDS011;59740;47.696;11.746;2023-11-21T01:05:07;8.15;;;2.25;;
23466;SDS011;59740;47.696;11.746;2023-11-21T01:07:36;6.15;;;1.98;;
23466;SDS011;59740;47.696;11.746;2023-11-21T01:10:05;6.22;;;1.88;;
23466;SDS011;59740;47.696;11.746;2023-11-21T01:12:35;5.35;;;1.92;;
23466;SDS011;59740;47.696;11.746;2023-11-21T01:15:05;9.43;;;2.17;;
23466;SDS011;59740;47.696;11.746;2023-11-21T01:17:35;4.57;;;1.70;;
23466;SDS011;59740;47.696;11.746;2023-11-21T01:20:04;4.82;;;1.88;;
23466;SDS011;59740;47.696;11.746;2023-11-21T01:22:41;4.07;;;1.77;;
23466;SDS011;59740;47.696;11.746;2023-11-21T01:25:10;6.05;;;1.80;;
23466;SDS011;59740;47.696;11.746;2023-11-21T01:27:42;5.05;;;1.67;;
23466;SDS011;59740;47.696;11.746;2023-11-21T01:30:11;4.68;;;1.70;;
23466;SDS011;59740;47.696;11.746;2023-11-21T01:32:39;6.55;;;1.80;;
23466;SDS011;59740;47.696;11.746;2023-11-21T01:35:08;6.53;;;1.90;;
23466;SDS011;59740;47.696;11.746;2023-11-21T01:37:37;5.70;;;1.80;;
23466;SDS011;59740;47.696;11.746;2023-11-21T01:40:08;8.02;;;1.77;;
23466;SDS011;59740;47.696;11.746;2023-11-21T01:42:41;8.93;;;2.05;;
23466;SDS011;59740;47.696;11.746;2023-11-21T01:45:10;6.78;;;2.00;;
23466;SDS011;59740;47.696;11.746;2023-11-21T01:47:40;4.57;;;1.45;;
23466;SDS011;59740;47.696;11.746;2023-11-21T01:50:11;5.35;;;1.70;;
23466;SDS011;59740;47.696;11.746;2023-11-21T01:52:43;6.53;;;1.65;;
23466;SDS011;59740;47.696;11.746;2023-11-21T01:55:17;5.40;;;1.58;;
23466;SDS011;59740;47.696;11.746;2023-11-21T01:57:54;5.50;;;1.48;;
23466;SDS011;59740;47.696;11.746;2023-11-21T02:00:24;4.90;;;1.52;;
23466;SDS011;59740;47.696;11.746;2023-11-21T02:02:55;6.55;;;1.83;;
23466;SDS011;59740;47.696;11.746;2023-11-21T02:05:25;4.57;;;1.60;;
23466;SDS011;59740;47.696;11.746;2023-11-21T02:07:53;4.75;;;1.60;;
23466;SDS011;59740;47.696;11.746;2023-11-21T02:10:24;6.35;;;1.75;;
23466;SDS011;59740;47.696;11.746;2023-11-21T02:12:53;4.75;;;1.60;;
23466;SDS011;59740;47.696;11.746;2023-11-21T02:15:22;5.28;;;1.88;;
23466;SDS011;59740;47.696;11.746;2023-11-21T02:17:55;6.57;;;2.17;;
23466;SDS011;59740;47.696;11.746;2023-11-21T02:20:25;6.75;;;1.63;;
23466;SDS011;59740;47.696;11.746;2023-11-21T02:22:57;4.90;;;1.60;;
23466;SDS011;59740;47.696;11.746;2023-11-21T02:25:27;4.43;;;1.50;;
23466;SDS011;59740;47.696;11.746;2023-11-21T02:27:57;5.50;;;1.77;;
23466;SDS011;59740;47.696;11.746;2023-11-21T02:30:27;4.28;;;1.63;;
23466;SDS011;59740;47.696;11.746;2023-11-21T02:32:58;5.15;;;1.90;;
23466;SDS011;59740;47.696;11.746;2023-11-21T02:35:27;5.65;;;1.85;;
23466;SDS011;59740;47.696;11.746;2023-11-21T02:37:59;6.20;;;2.00;;
23466;SDS011;59740;47.696;11.746;2023-11-21T02:40:28;6.95;;;1.63;;
23466;SDS011;59740;47.696;11.746;2023-11-21T02:42:57;7.55;;;1.80;;
23466;SDS011;59740;47.696;11.746;2023-11-21T02:45:26;4.85;;;1.98;;
23466;SDS011;59740;47.696;11.746;2023-11-21T02:47:55;4.38;;;1.70;;
23466;SDS011;59740;47.696;11.746;2023-11-21T02:50:25;7.65;;;1.60;;
23466;SDS011;59740;47.696;11.746;2023-11-21T02:52:54;5.72;;;1.80;;
23466;SDS011;59740;47.696;11.746;2023-11-21T02:55:25;7.28;;;1.90;;
23466;SDS011;59740;47.696;11.746;2023-11-21T02:57:54;6.90;;;1.88;;
23466;SDS011;59740;47.696;11.746;2023-11-21T03:00:24;5.90;;;1.70;;
23466;SDS011;59740;47.696;11.746;2023-11-21T03:02:53;6.03;;;1.80;;
23466;SDS011;59740;47.696;11.746;2023-11-21T03:05:22;5.60;;;1.65;;
23466;SDS011;59740;47.696;11.746;2023-11-21T03:07:51;7.57;;;2.05;;
23466;SDS011;59740;47.696;11.746;2023-11-21T03:10:19;8.05;;;1.98;;
23466;SDS011;59740;47.696;11.746;2023-11-21T03:12:50;4.05;;;1.85;;
23466;SDS011;59740;47.696;11.746;2023-11-21T03:15:19;4.55;;;1.55;;
23466;SDS011;59740;47.696;11.746;2023-11-21T03:17:47;8.07;;;1.85;;
23466;SDS011;59740;47.696;11.746;2023-11-21T03:20:17;6.30;;;1.70;;
23466;SDS011;59740;47.696;11.746;2023-11-21T03:22:46;4.75;;;1.50;;
23466;SDS011;59740;47.696;11.746;2023-11-21T03:25:14;6.15;;;1.65;;
23466;SDS011;59740;47.696;11.746;2023-11-21T03:27:44;4.13;;;1.77;;
23466;SDS011;59740;47.696;11.746;2023-11-21T03:30:14;3.17;;;1.60;;
23466;SDS011;59740;47.696;11.746;2023-11-21T03:32:43;3.15;;;1.42;;
23466;SDS011;59740;47.696;11.746;2023-11-21T03:35:12;7.80;;;2.08;;
23466;SDS011;59740;47.696;11.746;2023-11-21T03:37:40;4.68;;;1.83;;
23466;SDS011;59740;47.696;11.746;2023-11-21T03:40:10;4.90;;;1.83;;
23466;SDS011;59740;47.696;11.746;2023-11-21T03:42:40;5.43;;;1.60;;
23466;SDS011;59740;47.696;11.746;2023-11-21T03:45:09;4.50;;;1.60;;
23466;SDS011;59740;47.696;11.746;2023-11-21T03:47:41;5.20;;;1.58;;
23466;SDS011;59740;47.696;11.746;2023-11-21T03:50:10;3.85;;;1.50;;
23466;SDS011;59740;47.696;11.746;2023-11-21T03:52:39;4.53;;;1.60;;
23466;SDS011;59740;47.696;11.746;2023-11-21T03:55:07;6.03;;;1.58;;
23466;SDS011;59740;47.696;11.746;2023-11-21T03:57:37;7.60;;;1.98;;
23466;SDS011;59740;47.696;11.746;2023-11-21T04:00:06;5.18;;;1.70;;
23466;SDS011;59740;47.696;11.746;2023-11-21T04:02:39;4.47;;;1.87;;
23466;SDS011;59740;47.696;11.746;2023-11-21T04:05:09;6.25;;;1.90;;
23466;SDS011;59740;47.696;11.746;2023-11-21T04:07:38;4.30;;;1.77;;
23466;SDS011;59740;47.696;11.746;2023-11-21T04:10:07;7.20;;;1.80;;
23466;SDS011;59740;47.696;11.746;2023-11-21T04:12:39;6.80;;;1.85;;
23466;SDS011;59740;47.696;11.746;2023-11-21T04:15:08;5.43;;;1.80;;
23466;SDS011;59740;47.696;11.746;2023-11-21T04:17:37;5.35;;;1.67;;
23466;SDS011;59740;47.696;11.746;2023-11-21T04:20:08;6.88;;;1.80;;
23466;SDS011;59740;47.696;11.746;2023-11-21T04:22:38;4.95;;;1.70;;
23466;SDS011;59740;47.696;11.746;2023-11-21T04:25:09;4.63;;;1.67;;
23466;SDS011;59740;47.696;11.746;2023-11-21T04:27:39;5.95;;;2.25;;
23466;SDS011;59740;47.696;11.746;2023-11-21T04:30:10;4.68;;;1.80;;
23466;SDS011;59740;47.696;11.746;2023-11-21T04:32:40;3.17;;;1.50;;
23466;SDS011;59740;47.696;11.746;2023-11-21T04:35:11;3.75;;;1.67;;
23466;SDS011;59740;47.696;11.746;2023-11-21T04:37:39;6.32;;;1.50;;
23466;SDS011;59740;47.696;11.746;2023-11-21T04:40:08;4.00;;;1.50;;
23466;SDS011;59740;47.696;11.746;2023-11-21T04:42:37;7.38;;;1.80;;
23466;SDS011;59740;47.696;11.746;2023-11-21T04:45:06;5.68;;;1.50;;
23466;SDS011;59740;47.696;11.746;2023-11-21T04:47:38;3.53;;;1.52;;
23466;SDS011;59740;47.696;11.746;2023-11-21T04:50:06;4.82;;;1.77;;
23466;SDS011;59740;47.696;11.746;2023-11-21T04:52:36;4.93;;;1.77;;
23466;SDS011;59740;47.696;11.746;2023-11-21T04:55:05;4.20;;;1.38;;
23466;SDS011;59740;47.696;11.746;2023-11-21T04:57:37;5.40;;;1.70;;
23466;SDS011;59740;47.696;11.746;2023-11-21T05:00:06;4.13;;;1.80;;
23466;SDS011;59740;47.696;11.746;2023-11-21T05:02:35;5.95;;;1.60;;
23466;SDS011;59740;47.696;11.746;2023-11-21T05:05:05;6.72;;;1.98;;
23466;SDS011;59740;47.696;11.746;2023-11-21T05:07:38;3.83;;;1.60;;
23466;SDS011;59740;47.696;11.746;2023-11-21T05:10:07;5.80;;;1.80;;
23466;SDS011;59740;47.696;11.746;2023-11-21T05:12:39;4.45;;;1.73;;
23466;SDS011;59740;47.696;11.746;2023-11-21T05:15:09;3.42;;;1.63;;
23466;SDS011;59740;47.696;11.746;2023-11-21T05:17:39;4.55;;;1.95;;
23466;SDS011;59740;47.696;11.746;2023-11-21T05:20:10;6.80;;;2.60;;
23466;SDS011;59740;47.696;11.746;2023-11-21T05:22:42;5.88;;;2.45;;
23466;SDS011;59740;47.696;11.746;2023-11-21T05:25:11;8.35;;;2.83;;
23466;SDS011;59740;47.696;11.746;2023-11-21T05:27:39;4.78;;;2.40;;
23466;SDS011;59740;47.696;11.746;2023-11-21T05:30:08;7.60;;;2.42;;
23466;SDS011;59740;47.696;11.746;2023-11-21T05:32:39;5.65;;;2.10;;
23466;SDS011;59740;47.696;11.746;2023-11-21T05:35:09;5.88;;;2.55;;
23466;SDS011;59740;47.696;11.746;2023-11-21T05:37:44;5.80;;;2.75;;
23466;SDS011;59740;47.696;11.746;2023-11-21T05:40:13;5.88;;;2.67;;
23466;SDS011;59740;47.696;11.746;2023-11-21T05:42:43;4.80;;;2.20;;
23466;SDS011;59740;47.696;11.746;2023-11-21T05:45:12;5.53;;;2.10;;
23466;SDS011;59740;47.696;11.746;2023-11-21T05:47:41;3.38;;;1.67;;
23466;SDS011;59740;47.696;11.746;2023-11-21T05:50:13;4.25;;;1.85;;
23466;SDS011;59740;47.696;11.746;2023-11-21T05:52:44;5.18;;;1.75;;
23466;SDS011;59740;47.696;11.746;2023-11-21T05:55:14;4.22;;;1.60;;
23466;SDS011;59740;47.696;11.746;2023-11-21T05:57:43;4.05;;;1.50;;
23466;SDS011;59740;47.696;11.746;2023-11-21T06:00:12;5.20;;;1.13;;
23466;SDS011;59740;47.696;11.746;2023-11-21T06:02:47;6.10;;;1.95;;
23466;SDS011;59740;47.696;11.746;2023-11-21T06:05:17;8.75;;;3.75;;
23466;SDS011;59740;47.696;11.746;2023-11-21T06:07:48;4.70;;;1.95;;
23466;SDS011;59740;47.696;11.746;2023-11-21T06:10:16;4.53;;;1.25;;
23466;SDS011;59740;47.696;11.746;2023-11-21T06:12:46;5.13;;;0.90;;
23466;SDS011;59740;47.696;11.746;2023-11-21T06:15:15;3.08;;;0.80;;
23466;SDS011;59740;47.696;11.746;2023-11-21T06:17:46;3.88;;;1.00;;
23466;SDS011;59740;47.696;11.746;2023-11-21T06:20:19;2.58;;;0.90;;
23466;SDS011;59740;47.696;11.746;2023-11-21T06:22:49;5.20;;;1.00;;
23466;SDS011;59740;47.696;11.746;2023-11-21T06:25:18;2.30;;;0.90;;
23466;SDS011;59740;47.696;11.746;2023-11-21T06:27:47;2.85;;;1.13;;
23466;SDS011;59740;47.696;11.746;2023-11-21T06:30:16;2.38;;;0.90;;
23466;SDS011;59740;47.696;11.746;2023-11-21T06:32:47;2.45;;;1.05;;
23466;SDS011;59740;47.696;11.746;2023-11-21T06:35:16;4.30;;;1.27;;
23466;SDS011;59740;47.696;11.746;2023-11-21T06:37:45;5.07;;;1.20;;
23466;SDS011;59740;47.696;11.746;2023-11-21T06:40:18;3.45;;;1.05;;
23466;SDS011;59740;47.696;11.746;2023-11-21T06:42:48;4.75;;;1.20;;
23466;SDS011;59740;47.696;11.746;2023-11-21T06:45:17;2.65;;;1.00;;
23466;SDS011;59740;47.696;11.746;2023-11-21T06:47:46;3.10;;;0.90;;
23466;SDS011;59740;47.696;11.746;2023-11-21T06:50:16;2.03;;;1.13;;
23466;SDS011;59740;47.696;11.746;2023-11-21T06:52:44;4.28;;;1.33;;
23466;SDS011;59740;47.696;11.746;2023-11-21T06:55:13;5.45;;;1.23;;
23466;SDS011;59740;47.696;11.746;2023-11-21T06:57:44;5.10;;;1.35;;
23466;SDS011;59740;47.696;11.746;2023-11-21T07:00:15;5.30;;;1.40;;
23466;SDS011;59740;47.696;11.746;2023-11-21T07:02:45;3.97;;;1.38;;
23466;SDS011;59740;47.696;11.746;2023-11-21T07:05:14;3.70;;;1.45;;
23466;SDS011;59740;47.696;11.746;2023-11-21T07:07:47;4.85;;;1.40;;
23466;SDS011;59740;47.696;11.746;2023-11-21T07:10:17;4.10;;;1.65;;
23466;SDS011;59740;47.696;11.746;2023-11-21T07:12:46;4.43;;;1.90;;
23466;SDS011;59740;47.696;11.746;2023-11-21T07:15:15;3.78;;;2.28;;
23466;SDS011;59740;47.696;11.746;2023-11-21T07:17:46;6.00;;;2.10;;
23466;SDS011;59740;47.696;11.746;2023-11-21T07:20:15;4.85;;;2.50;;
23466;SDS011;59740;47.696;11.746;2023-11-21T07:22:44;8.40;;;2.58;;
23466;SDS011;59740;47.696;11.746;2023-11-21T07:25:13;5.47;;;2.53;;
23466;SDS011;59740;47.696;11.746;2023-11-21T07:27:42;6.40;;;2.42;;
23466;SDS011;59740;47.696;11.746;2023-11-21T07:30:13;4.57;;;2.30;;
23466;SDS011;59740;47.696;11.746;2023-11-21T07:32:42;4.85;;;2.22;;
23466;SDS011;59740;47.696;11.746;2023-11-21T07:35:12;5.50;;;1.92;;
23466;SDS011;59740;47.696;11.746;2023-11-21T07:37:40;7.10;;;2.50;;
23466;SDS011;59740;47.696;11.746;2023-11-21T07:40:10;9.57;;;3.55;;
23466;SDS011;59740;47.696;11.746;2023-11-21T07:42:39;6.60;;;3.40;;
23466;SDS011;59740;47.696;11.746;2023-11-21T07:45:10;8.68;;;2.60;;
23466;SDS011;59740;47.696;11.746;2023-11-21T07:47:40;5.20;;;2.55;;
23466;SDS011;59740;47.696;11.746;2023-11-21T07:50:09;7.40;;;2.88;;
23466;SDS011;59740;47.696;11.746;2023-11-21T07:52:40;7.18;;;3.30;;
23466;SDS011;59740;47.696;11.746;2023-11-21T07:55:09;8.45;;;4.70;;
23466;SDS011;59740;47.696;11.746;2023-11-21T07:57:38;7.07;;;4.80;;
23466;SDS011;59740;47.696;11.746;2023-11-21T08:00:07;6.15;;;3.33;;
23466;SDS011;59740;47.696;11.746;2023-11-21T08:02:40;5.22;;;3.22;;
23466;SDS011;59740;47.696;11.746;2023-11-21T08:05:10;6.25;;;2.92;;
23466;SDS011;59740;47.696;11.746;2023-11-21T08:07:50;4.53;;;2.42;;
23466;SDS011;59740;47.696;11.746;2023-11-21T08:10:21;6.30;;;2.65;;
23466;SDS011;59740;47.696;11.746;2023-11-21T08:12:50;6.25;;;2.53;;
23466;SDS011;59740;47.696;11.746;2023-11-21T08:15:18;7.07;;;2.20;;
23466;SDS011;59740;47.696;11.746;2023-11-21T08:17:48;5.78;;;2.78;;
23466;SDS011;59740;47.696;11.746;2023-11-21T08:20:17;4.18;;;1.85;;
23466;SDS011;59740;47.696;11.746;2023-11-21T08:22:46;5.47;;;1.65;;
23466;SDS011;59740;47.696;11.746;2023-11-21T08:25:15;4.95;;;1.60;;
23466;SDS011;59740;47.696;11.746;2023-11-21T08:27:47;3.67;;;1.20;;
23466;SDS011;59740;47.696;11.746;2023-11-21T08:30:15;4.07;;;1.25;;
23466;SDS011;59740;47.696;11.746;2023-11-21T08:32:46;3.42;;;1.45;;
23466;SDS011;59740;47.696;11.746;2023-11-21T08:35:16;3.88;;;1.65;;
23466;SDS011;59740;47.696;11.746;2023-11-21T08:37:45;3.60;;;1.50;;
23466;SDS011;59740;47.696;11.746;2023-11-21T08:40:14;5.10;;;1.52;;
23466;SDS011;59740;47.696;11.746;2023-11-21T08:42:44;3.55;;;1.65;;
23466;SDS011;59740;47.696;11.746;2023-11-21T08:45:13;2.97;;;1.48;;
23466;SDS011;59740;47.696;11.746;2023-11-21T08:47:46;2.50;;;1.20;;
23466;SDS011;59740;47.696;11.746;2023-11-21T08:50:16;3.55;;;1.17;;
23466;SDS011;59740;47.696;11.746;2023-11-21T08:52:45;1.25;;;0.70;;
23466;SDS011;59740;47.696;11.746;2023-11-21T08:55:14;3.85;;;1.00;;
23466;SDS011;59740;47.696;11.746;2023-11-21T08:57:43;2.65;;;1.00;;
23466;SDS011;59740;47.696;11.746;2023-11-21T09:00:13;3.17;;;0.70;;
23466;SDS011;59740;47.696;11.746;2023-11-21T09:02:44;2.97;;;0.90;;
23466;SDS011;59740;47.696;11.746;2023-11-21T09:05:14;1.27;;;0.60;;
23466;SDS011;59740;47.696;11.746;2023-11-21T09:07:44;1.48;;;0.60;;
23466;SDS011;59740;47.696;11.746;2023-11-21T09:10:15;1.38;;;0.70;;
23466;SDS011;59740;47.696;11.746;2023-11-21T09:12:44;3.10;;;0.90;;
23466;SDS011;59740;47.696;11.746;2023-11-21T09:15:13;2.42;;;0.70;;
23466;SDS011;59740;47.696;11.746;2023-11-21T09:17:41;2.15;;;0.90;;
23466;SDS011;59740;47.696;11.746;2023-11-21T09:20:12;3.00;;;0.80;;
23466;SDS011;59740;47.696;11.746;2023-11-21T09:22:43;1.60;;;0.70;;
23466;SDS011;59740;47.696;11.746;2023-11-21T09:25:13;1.90;;;0.77;;
23466;SDS011;59740;47.696;11.746;2023-11-21T09:27:42;2.20;;;0.68;;
23466;SDS011;59740;47.696;11.746;2023-11-21T09:30:11;2.60;;;0.70;;
23466;SDS011;59740;47.696;11.746;2023-11-21T09:32:44;3.33;;;1.05;;
23466;SDS011;59740;47.696;11.746;2023-11-21T09:35:15;2.17;;;0.60;;
23466;SDS011;59740;47.696;11.746;2023-11-21T09:37:45;1.95;;;0.63;;
23466;SDS011;59740;47.696;11.746;2023-11-21T09:40:16;2.60;;;0.70;;
23466;SDS011;59740;47.696;11.746;2023-11-21T09:42:51;3.08;;;0.77;;
23466;SDS011;59740;47.696;11.746;2023-11-21T09:45:24;2.08;;;0.75;;
23466;SDS011;59740;47.696;11.746;2023-11-21T09:47:55;1.75;;;0.70;;
23466;SDS011;59740;47.696;11.746;2023-11-21T09:50:25;1.05;;;0.50;;
23466;SDS011;59740;47.696;11.746;2023-11-21T09:52:57;1.95;;;0.52;;
23466;SDS011;59740;47.696;11.746;2023-11-21T09:55:34;1.05;;;0.60;;
23466;SDS011;59740;47.696;11.746;2023-11-21T09:58:04;1.05;;;0.45;;
23466;SDS011;59740;47.696;11.746;2023-11-21T10:00:34;1.15;;;0.60;;
23466;SDS011;59740;47.696;11.746;2023-11-21T10:03:03;1.02;;;0.45;;
23466;SDS011;59740;47.696;11.746;2023-11-21T10:05:31;2.92;;;0.50;;
23466;SDS011;59740;47.696;11.746;2023-11-21T10:08:07;1.55;;;0.38;;
23466;SDS011;59740;47.696;11.746;2023-11-21T10:10:36;1.15;;;0.50;;
23466;SDS011;59740;47.696;11.746;2023-11-21T10:13:08;0.85;;;0.40;;
23466;SDS011;59740;47.696;11.746;2023-11-21T10:15:42;1.00;;;0.32;;
23466;SDS011;59740;47.696;11.746;2023-11-21T10:18:15;1.33;;;0.43;;
23466;SDS011;59740;47.696;11.746;2023-11-21T10:20:45;0.93;;;0.30;;
23466;SDS011;59740;47.696;11.746;2023-11-21T10:23:21;1.52;;;0.50;;
23466;SDS011;59740;47.696;11.746;2023-11-21T10:25:51;2.45;;;0.55;;
23466;SDS011;59740;47.696;11.746;2023-11-21T10:28:24;0.93;;;0.40;;
23466;SDS011;59740;47.696;11.746;2023-11-21T10:30:52;1.85;;;0.50;;
23466;SDS011;59740;47.696;11.746;2023-11-21T10:33:26;0.98;;;0.40;;
23466;SDS011;59740;47.696;11.746;2023-11-21T10:35:56;0.35;;;0.20;;
23466;SDS011;59740;47.696;11.746;2023-11-21T10:38:27;1.13;;;0.50;;
23466;SDS011;59740;47.696;11.746;2023-11-21T10:40:57;1.20;;;0.32;;
23466;SDS011;59740;47.696;11.746;2023-11-21T10:43:26;1.48;;;0.40;;
23466;SDS011;59740;47.696;11.746;2023-11-21T10:45:57;0.43;;;0.30;;
23466;SDS011;59740;47.696;11.746;2023-11-21T10:48:27;1.73;;;0.50;;
23466;SDS011;59740;47.696;11.746;2023-11-21T10:50:56;0.60;;;0.30;;
23466;SDS011;59740;47.696;11.746;2023-11-21T10:53:29;0.73;;;0.40;;
23466;SDS011;59740;47.696;11.746;2023-11-21T10:56:01;0.63;;;0.30;;
23466;SDS011;59740;47.696;11.746;2023-11-21T10:58:33;1.27;;;0.40;;
23466;SDS011;59740;47.696;11.746;2023-11-21T11:01:04;0.93;;;0.43;;
23466;SDS011;59740;47.696;11.746;2023-11-21T11:03:34;1.00;;;0.40;;
23466;SDS011;59740;47.696;11.746;2023-11-21T11:06:04;1.20;;;0.38;;
23466;SDS011;59740;47.696;11.746;2023-11-21T11:08:42;0.75;;;0.30;;
23466;SDS011;59740;47.696;11.746;2023-11-21T11:11:12;0.82;;;0.40;;
23466;SDS011;59740;47.696;11.746;2023-11-21T11:13:42;2.92;;;0.47;;
23466;SDS011;59740;47.696;11.746;2023-11-21T11:16:13;0.60;;;0.30;;
23466;SDS011;59740;47.696;11.746;2023-11-21T11:18:44;0.45;;;0.28;;
23466;SDS011;59740;47.696;11.746;2023-11-21T11:21:20;1.65;;;0.50;;
23466;SDS011;59740;47.696;11.746;2023-11-21T11:24:01;1.63;;;0.40;;
23466;SDS011;59740;47.696;11.746;2023-11-21T11:26:43;1.55;;;0.32;;
23466;SDS011;59740;47.696;11.746;2023-11-21T11:29:22;0.38;;;0.30;;
23466;SDS011;59740;47.696;11.746;2023-11-21T11:32:02;0.43;;;0.30;;
23466;SDS011;59740;47.696;11.746;2023-11-21T11:34:38;0.85;;;0.20;;
23466;SDS011;59740;47.696;11.746;2023-11-21T11:37:13;0.30;;;0.20;;
23466;SDS011;59740;47.696;11.746;2023-11-21T11:39:43;0.95;;;0.30;;
23466;SDS011;59740;47.696;11.746;2023-11-21T11:42:12;1.08;;;0.50;;
23466;SDS011;59740;47.696;11.746;2023-11-21T11:44:49;1.48;;;0.70;;
23466;SDS011;59740;47.696;11.746;2023-11-21T11:47:23;1.10;;;0.60;;
23466;SDS011;59740;47.696;11.746;2023-11-21T11:50:05;0.57;;;0.38;;
23466;SDS011;59740;47.696;11.746;2023-11-21T11:52:35;1.95;;;0.32;;
23466;SDS011;59740;47.696;11.746;2023-11-21T11:55:11;0.90;;;0.30;;
23466;SDS011;59740;47.696;11.746;2023-11-21T11:57:41;0.98;;;0.60;;
23466;SDS011;59740;47.696;11.746;2023-11-21T12:00:14;3.05;;;1.50;;
23466;SDS011;59740;47.696;11.746;2023-11-21T12:02:46;3.40;;;1.48;;
23466;SDS011;59740;47.696;11.746;2023-11-21T12:05:16;2.85;;;1.20;;
23466;SDS011;59740;47.696;11.746;2023-11-21T12:07:46;2.78;;;1.20;;
23466;SDS011;59740;47.696;11.746;2023-11-21T12:10:20;2.75;;;1.50;;
23466;SDS011;59740;47.696;11.746;2023-11-21T12:12:52;2.38;;;1.38;;
23466;SDS011;59740;47.696;11.746;2023-11-21T12:18:21;4.78;;;2.90;;
23466;SDS011;59740;47.696;11.746;2023-11-21T12:20:52;3.35;;;2.05;;
23466;SDS011;59740;47.696;11.746;2023-11-21T12:23:21;2.75;;;1.60;;
23466;SDS011;59740;47.696;11.746;2023-11-21T12:25:51;1.02;;;0.70;;
23466;SDS011;59740;47.696;11.746;2023-11-21T12:28:20;1.75;;;0.70;;
23466;SDS011;59740;47.696;11.746;2023-11-21T12:30:49;1.25;;;0.73;;
23466;SDS011;59740;47.696;11.746;2023-11-21T12:33:26;0.73;;;0.50;;
23466;SDS011;59740;47.696;11.746;2023-11-21T12:35:56;1.55;;;0.70;;
23466;SDS011;59740;47.696;11.746;2023-11-21T12:38:25;2.22;;;0.52;;
23466;SDS011;59740;47.696;11.746;2023-11-21T12:41:03;1.95;;;0.50;;
23466;SDS011;59740;47.696;11.746;2023-11-21T12:43:33;1.65;;;0.80;;
23466;SDS011;59740;47.696;11.746;2023-11-21T12:46:06;1.85;;;0.70;;
23466;SDS011;59740;47.696;11.746;2023-11-21T12:48:36;1.35;;;0.70;;
23466;SDS011;59740;47.696;11.746;2023-11-21T12:51:09;3.40;;;1.10;;
23466;SDS011;59740;47.696;11.746;2023-11-21T12:53:39;2.10;;;1.17;;
23466;SDS011;59740;47.696;11.746;2023-11-21T12:56:10;1.83;;;0.90;;
23466;SDS011;59740;47.696;11.746;2023-11-21T12:58:39;2.25;;;1.23;;
23466;SDS011;59740;47.696;11.746;2023-11-21T13:01:12;3.05;;;1.65;;
23466;SDS011;59740;47.696;11.746;2023-11-21T13:03:48;1.85;;;0.80;;
23466;SDS011;59740;47.696;11.746;2023-11-21T13:06:18;2.40;;;0.80;;
23466;SDS011;59740;47.696;11.746;2023-11-21T13:08:51;2.55;;;1.00;;
23466;SDS011;59740;47.696;11.746;2023-11-21T13:11:22;0.82;;;0.50;;
23466;SDS011;59740;47.696;11.746;2023-11-21T13:13:52;0.60;;;0.40;;
23466;SDS011;59740;47.696;11.746;2023-11-21T13:16:23;0.82;;;0.63;;
23466;SDS011;59740;47.696;11.746;2023-11-21T13:18:51;1.20;;;0.55;;
23466;SDS011;59740;47.696;11.746;2023-11-21T13:21:20;0.63;;;0.50;;
23466;SDS011;59740;47.696;11.746;2023-11-21T13:23:49;2.00;;;0.70;;
23466;SDS011;59740;47.696;11.746;2023-11-21T13:26:20;2.40;;;0.80;;
23466;SDS011;59740;47.696;11.746;2023-11-21T13:28:52;2.00;;;0.90;;
23466;SDS011;59740;47.696;11.746;2023-11-21T13:31:21;1.50;;;0.90;;
23466;SDS011;59740;47.696;11.746;2023-11-21T13:33:53;1.70;;;0.93;;
23466;SDS011;59740;47.696;11.746;2023-11-21T13:36:31;2.00;;;1.10;;
23466;SDS011;59740;47.696;11.746;2023-11-21T13:39:02;2.50;;;1.30;;
23466;SDS011;59740;47.696;11.746;2023-11-21T13:41:36;4.00;;;2.92;;
23466;SDS011;59740;47.696;11.746;2023-11-21T13:44:06;20.70;;;15.13;;
23466;SDS011;59740;47.696;11.746;2023-11-21T13:46:43;6.63;;;4.03;;
23466;SDS011;59740;47.696;11.746;2023-11-21T13:49:13;15.30;;;12.95;;
23466;SDS011;59740;47.696;11.746;2023-11-21T13:51:43;17.05;;;15.25;;
23466;SDS011;59740;47.696;11.746;2023-11-21T13:54:15;6.20;;;5.60;;
23466;SDS011;59740;47.696;11.746;2023-11-21T13:56:45;4.47;;;3.30;;
23466;SDS011;59740;47.696;11.746;2023-11-21T13:59:16;2.08;;;1.20;;
23466;SDS011;59740;47.696;11.746;2023-11-21T14:01:47;0.80;;;0.60;;
23466;SDS011;59740;47.696;11.746;2023-11-21T14:04:24;1.20;;;0.80;;
23466;SDS011;59740;47.696;11.746;2023-11-21T14:07:14;2.65;;;0.90;;
23466;SDS011;59740;47.696;11.746;2023-11-21T14:09:53;0.95;;;0.40;;
23466;SDS011;59740;47.696;11.746;2023-11-21T14:12:23;0.63;;;0.40;;
23466;SDS011;59740;47.696;11.746;2023-11-21T14:14:51;1.15;;;0.50;;
23466;SDS011;59740;47.696;11.746;2023-11-21T14:17:21;0.70;;;0.43;;
23466;SDS011;59740;47.696;11.746;2023-11-21T14:19:51;1.15;;;0.65;;
23466;SDS011;59740;47.696;11.746;2023-11-21T14:22:22;1.48;;;0.90;;
23466;SDS011;59740;47.696;11.746;2023-11-21T14:24:53;1.50;;;0.70;;
23466;SDS011;59740;47.696;11.746;2023-11-21T14:27:27;1.23;;;0.55;;
23466;SDS011;59740;47.696;11.746;2023-11-21T14:29:56;1.42;;;0.57;;
23466;SDS011;59740;47.696;11.746;2023-11-21T14:32:25;1.25;;;0.70;;
23466;SDS011;59740;47.696;11.746;2023-11-21T14:34:54;1.92;;;0.80;;
23466;SDS011;59740;47.696;11.746;2023-11-21T14:37:22;1.27;;;0.95;;
23466;SDS011;59740;47.696;11.746;2023-11-21T14:39:51;1.45;;;0.85;;
23466;SDS011;59740;47.696;11.746;2023-11-21T14:42:20;1.70;;;0.90;;
23466;SDS011;59740;47.696;11.746;2023-11-21T14:44:53;1.30;;;0.80;;
23466;SDS011;59740;47.696;11.746;2023-11-21T14:47:27;3.50;;;1.10;;
23466;SDS011;59740;47.696;11.746;2023-11-21T14:49:55;2.22;;;1.10;;
23466;SDS011;59740;47.696;11.746;2023-11-21T14:52:26;1.90;;;1.10;;
23466;SDS011;59740;47.696;11.746;2023-11-21T14:55:03;2.10;;;1.00;;